sensor_id;sensor_type;location;lat;lon;timestamp;P1;durP1;ratioP1;P2;durP2;ratioP2
5951;SDS011;3001;42.622;23.194;2023-03-23T00:02:04;3.97;;;3.77;;
5951;SDS011;3001;42.622;23.194;2023-03-23T00:04:31;21.53;;;12.97;;
5951;SDS011;3001;42.622;23.194;2023-03-23T00:06:57;27.40;;;17.47;;
5951;SDS011;3001;42.622;23.194;2023-03-23T00:09:26;16.27;;;10.97;;
5951;SDS011;3001;42.622;23.194;2023-03-23T00:11:52;12.70;;;10.60;;
5951;SDS011;3001;42.622;23.194;2023-03-23T00:14:22;10.87;;;9.43;;
5951;SDS011;3001;42.622;23.194;2023-03-23T00:16:50;11.73;;;8.10;;
5951;SDS011;3001;42.622;23.194;2023-03-23T00:19:18;13.50;;;8.10;;
5951;SDS011;3001;42.622;23.194;2023-03-23T00:21:45;8.13;;;7.07;;
5951;SDS011;3001;42.622;23.194;2023-03-23T00:24:12;6.90;;;5.63;;
5951;SDS011;3001;42.622;23.194;2023-03-23T00:26:42;5.03;;;4.73;;
5951;SDS011;3001;42.622;23.194;2023-03-23T00:29:12;4.33;;;4.03;;
5951;SDS011;3001;42.622;23.194;2023-03-23T00:31:39;3.93;;;3.63;;
5951;SDS011;3001;42.622;23.194;2023-03-23T00:34:11;4.03;;;3.73;;
5951;SDS011;3001;42.622;23.194;2023-03-23T00:36:44;3.83;;;3.53;;
5951;SDS011;3001;42.622;23.194;2023-03-23T00:39:12;4.03;;;3.73;;
5951;SDS011;3001;42.622;23.194;2023-03-23T00:41:41;3.63;;;3.43;;
5951;SDS011;3001;42.622;23.194;2023-03-23T00:44:08;3.47;;;3.17;;
5951;SDS011;3001;42.622;23.194;2023-03-23T00:46:35;3.67;;;3.47;;
5951;SDS011;3001;42.622;23.194;2023-03-23T00:49:10;3.40;;;3.20;;
5951;SDS011;3001;42.622;23.194;2023-03-23T00:51:38;4.20;;;3.90;;
5951;SDS011;3001;42.622;23.194;2023-03-23T00:54:07;4.13;;;3.10;;
5951;SDS011;3001;42.622;23.194;2023-03-23T00:56:34;4.63;;;3.83;;
5951;SDS011;3001;42.622;23.194;2023-03-23T00:59:01;3.77;;;3.47;;
5951;SDS011;3001;42.622;23.194;2023-03-23T01:01:28;3.67;;;3.47;;
5951;SDS011;3001;42.622;23.194;2023-03-23T01:03:55;3.90;;;3.60;;
5951;SDS011;3001;42.622;23.194;2023-03-23T01:06:26;3.67;;;3.37;;
5951;SDS011;3001;42.622;23.194;2023-03-23T01:08:53;2.97;;;2.77;;
5951;SDS011;3001;42.622;23.194;2023-03-23T01:11:23;3.33;;;3.10;;
5951;SDS011;3001;42.622;23.194;2023-03-23T01:13:49;3.80;;;3.03;;
5951;SDS011;3001;42.622;23.194;2023-03-23T01:16:17;4.20;;;2.80;;
5951;SDS011;3001;42.622;23.194;2023-03-23T01:18:43;4.03;;;3.67;;
5951;SDS011;3001;42.622;23.194;2023-03-23T01:21:11;3.60;;;3.40;;
5951;SDS011;3001;42.622;23.194;2023-03-23T01:23:39;5.10;;;4.57;;
5951;SDS011;3001;42.622;23.194;2023-03-23T01:26:06;4.03;;;3.63;;
5951;SDS011;3001;42.622;23.194;2023-03-23T01:28:37;5.03;;;4.73;;
5951;SDS011;3001;42.622;23.194;2023-03-23T01:31:05;4.73;;;3.97;;
5951;SDS011;3001;42.622;23.194;2023-03-23T01:33:33;6.33;;;5.13;;
5951;SDS011;3001;42.622;23.194;2023-03-23T01:36:02;5.03;;;4.70;;
5951;SDS011;3001;42.622;23.194;2023-03-23T01:38:30;5.50;;;5.03;;
5951;SDS011;3001;42.622;23.194;2023-03-23T01:40:57;7.07;;;6.37;;
5951;SDS011;3001;42.622;23.194;2023-03-23T01:43:24;7.70;;;5.83;;
5951;SDS011;3001;42.622;23.194;2023-03-23T01:45:52;6.57;;;6.07;;
5951;SDS011;3001;42.622;23.194;2023-03-23T01:48:20;5.97;;;5.37;;
5951;SDS011;3001;42.622;23.194;2023-03-23T01:50:51;4.97;;;4.57;;
5951;SDS011;3001;42.622;23.194;2023-03-23T01:53:22;6.23;;;3.87;;
5951;SDS011;3001;42.622;23.194;2023-03-23T01:55:51;4.93;;;4.63;;
5951;SDS011;3001;42.622;23.194;2023-03-23T01:58:21;5.03;;;4.63;;
5951;SDS011;3001;42.622;23.194;2023-03-23T02:00:50;5.33;;;4.03;;
5951;SDS011;3001;42.622;23.194;2023-03-23T02:03:20;4.50;;;4.13;;
5951;SDS011;3001;42.622;23.194;2023-03-23T02:05:48;4.23;;;4.03;;
5951;SDS011;3001;42.622;23.194;2023-03-23T02:08:16;3.80;;;3.50;;
5951;SDS011;3001;42.622;23.194;2023-03-23T02:10:44;5.17;;;4.67;;
5951;SDS011;3001;42.622;23.194;2023-03-23T02:13:11;4.80;;;4.50;;
5951;SDS011;3001;42.622;23.194;2023-03-23T02:15:51;4.23;;;3.93;;
5951;SDS011;3001;42.622;23.194;2023-03-23T02:18:35;4.23;;;3.93;;
5951;SDS011;3001;42.622;23.194;2023-03-23T02:21:16;4.83;;;4.53;;
5951;SDS011;3001;42.622;23.194;2023-03-23T02:24:05;6.03;;;5.40;;
5951;SDS011;3001;42.622;23.194;2023-03-23T02:26:52;10.00;;;6.17;;
5951;SDS011;3001;42.622;23.194;2023-03-23T02:29:44;5.27;;;4.87;;
5951;SDS011;3001;42.622;23.194;2023-03-23T02:32:27;6.00;;;5.50;;
5951;SDS011;3001;42.622;23.194;2023-03-23T02:35:16;5.87;;;5.37;;
5951;SDS011;3001;42.622;23.194;2023-03-23T02:37:47;6.67;;;5.17;;
5951;SDS011;3001;42.622;23.194;2023-03-23T02:40:18;7.23;;;5.13;;
5951;SDS011;3001;42.622;23.194;2023-03-23T02:42:47;4.60;;;4.30;;
5951;SDS011;3001;42.622;23.194;2023-03-23T02:45:16;6.13;;;5.63;;
5951;SDS011;3001;42.622;23.194;2023-03-23T02:47:44;7.67;;;6.87;;
5951;SDS011;3001;42.622;23.194;2023-03-23T02:50:13;7.37;;;6.70;;
5951;SDS011;3001;42.622;23.194;2023-03-23T02:52:44;7.50;;;6.90;;
5951;SDS011;3001;42.622;23.194;2023-03-23T02:55:12;8.43;;;7.70;;
5951;SDS011;3001;42.622;23.194;2023-03-23T02:57:41;10.37;;;7.97;;
5951;SDS011;3001;42.622;23.194;2023-03-23T03:00:11;7.77;;;7.03;;
5951;SDS011;3001;42.622;23.194;2023-03-23T03:02:41;7.37;;;6.77;;
5951;SDS011;3001;42.622;23.194;2023-03-23T03:05:14;5.10;;;4.80;;
5951;SDS011;3001;42.622;23.194;2023-03-23T03:07:54;8.40;;;5.03;;
5951;SDS011;3001;42.622;23.194;2023-03-23T03:10:30;5.10;;;4.70;;
5951;SDS011;3001;42.622;23.194;2023-03-23T03:13:02;5.23;;;4.93;;
5951;SDS011;3001;42.622;23.194;2023-03-23T03:15:33;4.80;;;4.40;;
5951;SDS011;3001;42.622;23.194;2023-03-23T03:18:05;5.03;;;4.53;;
5951;SDS011;3001;42.622;23.194;2023-03-23T03:20:38;4.93;;;4.53;;
5951;SDS011;3001;42.622;23.194;2023-03-23T03:23:10;5.90;;;5.40;;
5951;SDS011;3001;42.622;23.194;2023-03-23T03:25:39;5.50;;;5.10;;
5951;SDS011;3001;42.622;23.194;2023-03-23T03:28:12;5.80;;;4.67;;
5951;SDS011;3001;42.622;23.194;2023-03-23T03:30:40;7.10;;;5.93;;
5951;SDS011;3001;42.622;23.194;2023-03-23T03:33:09;5.30;;;4.87;;
5951;SDS011;3001;42.622;23.194;2023-03-23T03:35:39;4.90;;;4.50;;
5951;SDS011;3001;42.622;23.194;2023-03-23T03:38:09;5.53;;;5.07;;
5951;SDS011;3001;42.622;23.194;2023-03-23T03:40:37;4.80;;;4.50;;
5951;SDS011;3001;42.622;23.194;2023-03-23T03:43:04;5.37;;;5.00;;
5951;SDS011;3001;42.622;23.194;2023-03-23T03:45:32;4.80;;;4.47;;
5951;SDS011;3001;42.622;23.194;2023-03-23T03:47:58;4.80;;;4.50;;
5951;SDS011;3001;42.622;23.194;2023-03-23T03:50:25;5.93;;;5.27;;
5951;SDS011;3001;42.622;23.194;2023-03-23T03:52:53;4.83;;;4.53;;
5951;SDS011;3001;42.622;23.194;2023-03-23T03:55:22;5.57;;;5.17;;
5951;SDS011;3001;42.622;23.194;2023-03-23T03:57:48;5.47;;;5.00;;
5951;SDS011;3001;42.622;23.194;2023-03-23T04:00:16;4.73;;;4.43;;
5951;SDS011;3001;42.622;23.194;2023-03-23T04:02:44;4.93;;;4.53;;
5951;SDS011;3001;42.622;23.194;2023-03-23T04:05:16;4.70;;;4.30;;
5951;SDS011;3001;42.622;23.194;2023-03-23T04:07:45;4.83;;;4.43;;
5951;SDS011;3001;42.622;23.194;2023-03-23T04:10:16;4.80;;;4.37;;
5951;SDS011;3001;42.622;23.194;2023-03-23T04:12:44;5.03;;;4.70;;
5951;SDS011;3001;42.622;23.194;2023-03-23T04:15:11;5.83;;;5.33;;
5951;SDS011;3001;42.622;23.194;2023-03-23T04:17:38;5.13;;;4.73;;
5951;SDS011;3001;42.622;23.194;2023-03-23T04:20:06;5.10;;;4.77;;
5951;SDS011;3001;42.622;23.194;2023-03-23T04:22:39;7.00;;;5.50;;
5951;SDS011;3001;42.622;23.194;2023-03-23T04:25:08;5.47;;;4.87;;
5951;SDS011;3001;42.622;23.194;2023-03-23T04:27:38;5.30;;;4.90;;
5951;SDS011;3001;42.622;23.194;2023-03-23T04:30:08;5.67;;;5.17;;
5951;SDS011;3001;42.622;23.194;2023-03-23T04:32:37;6.30;;;4.97;;
5951;SDS011;3001;42.622;23.194;2023-03-23T04:35:07;5.27;;;4.87;;
5951;SDS011;3001;42.622;23.194;2023-03-23T04:37:35;5.03;;;4.63;;
5951;SDS011;3001;42.622;23.194;2023-03-23T04:40:03;4.73;;;4.43;;
5951;SDS011;3001;42.622;23.194;2023-03-23T04:42:38;6.00;;;5.40;;
5951;SDS011;3001;42.622;23.194;2023-03-23T04:45:06;6.37;;;5.87;;
5951;SDS011;3001;42.622;23.194;2023-03-23T04:47:35;5.37;;;4.87;;
5951;SDS011;3001;42.622;23.194;2023-03-23T04:50:06;5.60;;;5.10;;
5951;SDS011;3001;42.622;23.194;2023-03-23T04:52:34;6.20;;;5.60;;
5951;SDS011;3001;42.622;23.194;2023-03-23T04:55:02;6.07;;;5.47;;
5951;SDS011;3001;42.622;23.194;2023-03-23T04:57:30;6.10;;;5.50;;
5951;SDS011;3001;42.622;23.194;2023-03-23T04:59:59;5.70;;;5.20;;
5951;SDS011;3001;42.622;23.194;2023-03-23T05:02:26;7.10;;;6.20;;
5951;SDS011;3001;42.622;23.194;2023-03-23T05:04:55;6.73;;;6.13;;
5951;SDS011;3001;42.622;23.194;2023-03-23T05:07:22;7.20;;;6.50;;
5951;SDS011;3001;42.622;23.194;2023-03-23T05:09:48;8.00;;;6.80;;
5951;SDS011;3001;42.622;23.194;2023-03-23T05:12:15;8.67;;;7.70;;
5951;SDS011;3001;42.622;23.194;2023-03-23T05:14:42;8.27;;;7.47;;
5951;SDS011;3001;42.622;23.194;2023-03-23T05:17:10;8.80;;;7.57;;
5951;SDS011;3001;42.622;23.194;2023-03-23T05:19:37;9.87;;;7.43;;
5951;SDS011;3001;42.622;23.194;2023-03-23T05:22:06;7.83;;;7.10;;
5951;SDS011;3001;42.622;23.194;2023-03-23T05:24:33;9.93;;;8.93;;
5951;SDS011;3001;42.622;23.194;2023-03-23T05:26:59;10.73;;;8.80;;
5951;SDS011;3001;42.622;23.194;2023-03-23T05:29:27;12.53;;;8.43;;
5951;SDS011;3001;42.622;23.194;2023-03-23T05:31:55;24.03;;;13.80;;
5951;SDS011;3001;42.622;23.194;2023-03-23T05:34:26;26.40;;;15.67;;
5951;SDS011;3001;42.622;23.194;2023-03-23T05:36:53;26.23;;;15.77;;
5951;SDS011;3001;42.622;23.194;2023-03-23T05:39:22;24.77;;;15.80;;
5951;SDS011;3001;42.622;23.194;2023-03-23T05:41:49;26.93;;;16.00;;
5951;SDS011;3001;42.622;23.194;2023-03-23T05:44:16;19.77;;;13.63;;
5951;SDS011;3001;42.622;23.194;2023-03-23T05:46:43;19.33;;;13.40;;
5951;SDS011;3001;42.622;23.194;2023-03-23T05:49:10;20.90;;;12.33;;
5951;SDS011;3001;42.622;23.194;2023-03-23T05:51:38;130.73;;;18.77;;
5951;SDS011;3001;42.622;23.194;2023-03-23T05:54:05;217.20;;;26.83;;
5951;SDS011;3001;42.622;23.194;2023-03-23T05:56:32;176.40;;;24.13;;
5951;SDS011;3001;42.622;23.194;2023-03-23T05:58:59;114.40;;;21.60;;
5951;SDS011;3001;42.622;23.194;2023-03-23T06:01:27;124.80;;;29.87;;
5951;SDS011;3001;42.622;23.194;2023-03-23T06:03:54;93.80;;;25.80;;
5951;SDS011;3001;42.622;23.194;2023-03-23T06:06:23;47.90;;;20.50;;
5951;SDS011;3001;42.622;23.194;2023-03-23T06:08:51;89.10;;;22.30;;
5951;SDS011;3001;42.622;23.194;2023-03-23T06:11:18;58.33;;;24.90;;
5951;SDS011;3001;42.622;23.194;2023-03-23T06:13:45;70.83;;;30.67;;
5951;SDS011;3001;42.622;23.194;2023-03-23T06:16:11;72.03;;;30.47;;
5951;SDS011;3001;42.622;23.194;2023-03-23T06:18:38;61.90;;;28.10;;
5951;SDS011;3001;42.622;23.194;2023-03-23T06:21:05;52.03;;;26.03;;
5951;SDS011;3001;42.622;23.194;2023-03-23T06:23:33;59.90;;;26.13;;
5951;SDS011;3001;42.622;23.194;2023-03-23T06:26:04;80.87;;;36.20;;
5951;SDS011;3001;42.622;23.194;2023-03-23T06:28:33;60.83;;;28.57;;
5951;SDS011;3001;42.622;23.194;2023-03-23T06:30:59;88.87;;;35.17;;
5951;SDS011;3001;42.622;23.194;2023-03-23T06:33:26;67.83;;;33.30;;
5951;SDS011;3001;42.622;23.194;2023-03-23T06:35:53;67.53;;;32.20;;
5951;SDS011;3001;42.622;23.194;2023-03-23T06:38:21;52.10;;;29.47;;
5951;SDS011;3001;42.622;23.194;2023-03-23T06:40:47;41.07;;;23.60;;
5951;SDS011;3001;42.622;23.194;2023-03-23T06:43:15;28.57;;;18.13;;
5951;SDS011;3001;42.622;23.194;2023-03-23T06:45:42;23.27;;;15.73;;
5951;SDS011;3001;42.622;23.194;2023-03-23T06:48:09;21.47;;;15.07;;
5951;SDS011;3001;42.622;23.194;2023-03-23T06:50:35;26.90;;;17.87;;
5951;SDS011;3001;42.622;23.194;2023-03-23T06:53:02;31.40;;;18.73;;
5951;SDS011;3001;42.622;23.194;2023-03-23T06:55:29;34.43;;;20.03;;
5951;SDS011;3001;42.622;23.194;2023-03-23T06:57:55;36.73;;;22.00;;
5951;SDS011;3001;42.622;23.194;2023-03-23T07:00:25;33.43;;;21.07;;
5951;SDS011;3001;42.622;23.194;2023-03-23T07:02:52;35.77;;;20.77;;
5951;SDS011;3001;42.622;23.194;2023-03-23T07:05:19;30.20;;;18.83;;
5951;SDS011;3001;42.622;23.194;2023-03-23T07:07:45;34.80;;;20.67;;
5951;SDS011;3001;42.622;23.194;2023-03-23T07:10:12;30.67;;;20.60;;
5951;SDS011;3001;42.622;23.194;2023-03-23T07:12:40;29.97;;;19.77;;
5951;SDS011;3001;42.622;23.194;2023-03-23T07:15:07;33.07;;;18.67;;
5951;SDS011;3001;42.622;23.194;2023-03-23T07:17:37;27.33;;;18.40;;
5951;SDS011;3001;42.622;23.194;2023-03-23T07:20:04;27.87;;;17.93;;
5951;SDS011;3001;42.622;23.194;2023-03-23T07:22:32;29.83;;;17.97;;
5951;SDS011;3001;42.622;23.194;2023-03-23T07:24:59;23.67;;;16.47;;
5951;SDS011;3001;42.622;23.194;2023-03-23T07:27:26;23.43;;;17.33;;
5951;SDS011;3001;42.622;23.194;2023-03-23T07:29:53;23.87;;;16.67;;
5951;SDS011;3001;42.622;23.194;2023-03-23T07:32:21;24.93;;;16.50;;
5951;SDS011;3001;42.622;23.194;2023-03-23T07:34:49;23.60;;;16.60;;
5951;SDS011;3001;42.622;23.194;2023-03-23T07:37:17;22.40;;;16.10;;
5951;SDS011;3001;42.622;23.194;2023-03-23T07:39:43;24.03;;;17.23;;
5951;SDS011;3001;42.622;23.194;2023-03-23T07:42:10;22.03;;;16.03;;
5951;SDS011;3001;42.622;23.194;2023-03-23T07:44:37;27.53;;;17.03;;
5951;SDS011;3001;42.622;23.194;2023-03-23T07:47:03;19.47;;;16.00;;
5951;SDS011;3001;42.622;23.194;2023-03-23T07:49:30;22.00;;;17.23;;
5951;SDS011;3001;42.622;23.194;2023-03-23T07:51:59;24.63;;;16.67;;
5951;SDS011;3001;42.622;23.194;2023-03-23T07:54:26;21.50;;;15.67;;
5951;SDS011;3001;42.622;23.194;2023-03-23T07:56:53;20.73;;;15.67;;
5951;SDS011;3001;42.622;23.194;2023-03-23T07:59:19;21.20;;;16.77;;
5951;SDS011;3001;42.622;23.194;2023-03-23T08:01:46;21.00;;;15.53;;
5951;SDS011;3001;42.622;23.194;2023-03-23T08:04:13;19.17;;;14.97;;
5951;SDS011;3001;42.622;23.194;2023-03-23T08:06:40;20.63;;;15.60;;
5951;SDS011;3001;42.622;23.194;2023-03-23T08:09:08;21.27;;;15.83;;
5951;SDS011;3001;42.622;23.194;2023-03-23T08:11:35;18.83;;;16.23;;
5951;SDS011;3001;42.622;23.194;2023-03-23T08:14:02;19.27;;;16.60;;
5951;SDS011;3001;42.622;23.194;2023-03-23T08:16:30;20.57;;;15.63;;
5951;SDS011;3001;42.622;23.194;2023-03-23T08:18:57;18.50;;;15.47;;
5951;SDS011;3001;42.622;23.194;2023-03-23T08:21:24;20.97;;;16.30;;
5951;SDS011;3001;42.622;23.194;2023-03-23T08:23:51;23.53;;;15.87;;
5951;SDS011;3001;42.622;23.194;2023-03-23T08:26:19;21.93;;;15.57;;
5951;SDS011;3001;42.622;23.194;2023-03-23T08:28:47;22.90;;;17.10;;
5951;SDS011;3001;42.622;23.194;2023-03-23T08:31:14;20.83;;;17.00;;
5951;SDS011;3001;42.622;23.194;2023-03-23T08:33:42;22.00;;;17.00;;
5951;SDS011;3001;42.622;23.194;2023-03-23T08:36:08;30.93;;;17.67;;
5951;SDS011;3001;42.622;23.194;2023-03-23T08:38:35;23.73;;;17.27;;
5951;SDS011;3001;42.622;23.194;2023-03-23T08:41:04;20.97;;;15.60;;
5951;SDS011;3001;42.622;23.194;2023-03-23T08:43:34;19.07;;;15.50;;
5951;SDS011;3001;42.622;23.194;2023-03-23T08:46:01;16.70;;;14.90;;
5951;SDS011;3001;42.622;23.194;2023-03-23T08:48:32;15.87;;;14.10;;
5951;SDS011;3001;42.622;23.194;2023-03-23T08:51:00;13.80;;;12.50;;
5951;SDS011;3001;42.622;23.194;2023-03-23T08:53:27;12.40;;;11.03;;
5951;SDS011;3001;42.622;23.194;2023-03-23T08:55:55;10.83;;;9.87;;
5951;SDS011;3001;42.622;23.194;2023-03-23T08:58:22;13.50;;;11.37;;
5951;SDS011;3001;42.622;23.194;2023-03-23T09:00:50;11.50;;;10.40;;
5951;SDS011;3001;42.622;23.194;2023-03-23T09:03:17;8.87;;;8.13;;
5951;SDS011;3001;42.622;23.194;2023-03-23T09:05:44;8.20;;;7.50;;
5951;SDS011;3001;42.622;23.194;2023-03-23T09:08:11;8.10;;;7.50;;
5951;SDS011;3001;42.622;23.194;2023-03-23T09:10:38;8.80;;;7.97;;
5951;SDS011;3001;42.622;23.194;2023-03-23T09:13:05;9.07;;;8.40;;
5951;SDS011;3001;42.622;23.194;2023-03-23T09:15:32;7.33;;;6.83;;
5951;SDS011;3001;42.622;23.194;2023-03-23T09:18:00;7.40;;;6.83;;
5951;SDS011;3001;42.622;23.194;2023-03-23T09:20:28;7.40;;;6.90;;
5951;SDS011;3001;42.622;23.194;2023-03-23T09:22:56;7.63;;;6.97;;
5951;SDS011;3001;42.622;23.194;2023-03-23T09:25:24;7.43;;;6.93;;
5951;SDS011;3001;42.622;23.194;2023-03-23T09:27:53;7.60;;;7.07;;
5951;SDS011;3001;42.622;23.194;2023-03-23T09:30:21;7.07;;;6.67;;
5951;SDS011;3001;42.622;23.194;2023-03-23T09:32:49;7.87;;;7.27;;
5951;SDS011;3001;42.622;23.194;2023-03-23T09:35:17;8.80;;;8.17;;
5951;SDS011;3001;42.622;23.194;2023-03-23T09:37:46;8.53;;;7.93;;
5951;SDS011;3001;42.622;23.194;2023-03-23T09:40:15;8.00;;;7.40;;
5951;SDS011;3001;42.622;23.194;2023-03-23T09:42:49;7.37;;;6.87;;
5951;SDS011;3001;42.622;23.194;2023-03-23T09:45:24;8.90;;;8.23;;
5951;SDS011;3001;42.622;23.194;2023-03-23T09:48:03;7.50;;;6.90;;
5951;SDS011;3001;42.622;23.194;2023-03-23T09:50:45;7.00;;;6.50;;
5951;SDS011;3001;42.622;23.194;2023-03-23T09:53:18;7.80;;;7.13;;
5951;SDS011;3001;42.622;23.194;2023-03-23T09:55:48;7.77;;;6.90;;
5951;SDS011;3001;42.622;23.194;2023-03-23T09:58:17;6.93;;;6.43;;
5951;SDS011;3001;42.622;23.194;2023-03-23T10:00:51;7.37;;;6.40;;
5951;SDS011;3001;42.622;23.194;2023-03-23T10:03:34;7.37;;;6.87;;
5951;SDS011;3001;42.622;23.194;2023-03-23T10:06:07;7.40;;;6.90;;
5951;SDS011;3001;42.622;23.194;2023-03-23T10:08:35;8.20;;;7.60;;
5951;SDS011;3001;42.622;23.194;2023-03-23T10:11:07;7.63;;;7.13;;
5951;SDS011;3001;42.622;23.194;2023-03-23T10:13:50;7.27;;;6.70;;
5951;SDS011;3001;42.622;23.194;2023-03-23T10:16:25;6.97;;;6.47;;
5951;SDS011;3001;42.622;23.194;2023-03-23T10:18:56;7.83;;;7.17;;
5951;SDS011;3001;42.622;23.194;2023-03-23T10:21:29;7.37;;;6.87;;
5951;SDS011;3001;42.622;23.194;2023-03-23T10:24:01;7.43;;;6.90;;
5951;SDS011;3001;42.622;23.194;2023-03-23T10:26:32;7.30;;;6.77;;
5951;SDS011;3001;42.622;23.194;2023-03-23T10:29:08;7.10;;;6.60;;
5951;SDS011;3001;42.622;23.194;2023-03-23T10:31:41;6.40;;;5.83;;
5951;SDS011;3001;42.622;23.194;2023-03-23T10:34:12;7.03;;;6.63;;
5951;SDS011;3001;42.622;23.194;2023-03-23T10:36:51;7.10;;;6.70;;
5951;SDS011;3001;42.622;23.194;2023-03-23T10:39:27;7.67;;;7.17;;
5951;SDS011;3001;42.622;23.194;2023-03-23T10:41:59;7.37;;;6.70;;
5951;SDS011;3001;42.622;23.194;2023-03-23T10:44:32;6.87;;;6.37;;
5951;SDS011;3001;42.622;23.194;2023-03-23T10:47:00;7.80;;;7.33;;
5951;SDS011;3001;42.622;23.194;2023-03-23T10:49:29;7.20;;;6.80;;
5951;SDS011;3001;42.622;23.194;2023-03-23T10:52:04;8.30;;;7.67;;
5951;SDS011;3001;42.622;23.194;2023-03-23T10:54:39;6.53;;;6.13;;
5951;SDS011;3001;42.622;23.194;2023-03-23T10:57:22;6.90;;;6.50;;
5951;SDS011;3001;42.622;23.194;2023-03-23T10:59:57;6.87;;;6.47;;
5951;SDS011;3001;42.622;23.194;2023-03-23T11:02:26;6.80;;;6.30;;
5951;SDS011;3001;42.622;23.194;2023-03-23T11:04:56;6.63;;;6.23;;
5951;SDS011;3001;42.622;23.194;2023-03-23T11:07:28;7.33;;;6.87;;
5951;SDS011;3001;42.622;23.194;2023-03-23T11:10:06;7.30;;;6.80;;
5951;SDS011;3001;42.622;23.194;2023-03-23T11:12:43;7.37;;;6.97;;
5951;SDS011;3001;42.622;23.194;2023-03-23T11:15:23;7.13;;;6.73;;
5951;SDS011;3001;42.622;23.194;2023-03-23T11:17:57;7.80;;;7.20;;
5951;SDS011;3001;42.622;23.194;2023-03-23T11:20:27;7.57;;;6.97;;
5951;SDS011;3001;42.622;23.194;2023-03-23T11:22:57;7.10;;;6.60;;
5951;SDS011;3001;42.622;23.194;2023-03-23T11:25:24;6.17;;;5.87;;
5951;SDS011;3001;42.622;23.194;2023-03-23T11:27:51;6.90;;;6.50;;
5951;SDS011;3001;42.622;23.194;2023-03-23T11:30:20;6.87;;;6.47;;
5951;SDS011;3001;42.622;23.194;2023-03-23T11:32:49;6.50;;;6.10;;
5951;SDS011;3001;42.622;23.194;2023-03-23T11:35:19;6.33;;;5.97;;
5951;SDS011;3001;42.622;23.194;2023-03-23T11:37:48;6.67;;;6.30;;
5951;SDS011;3001;42.622;23.194;2023-03-23T11:40:20;7.10;;;6.60;;
5951;SDS011;3001;42.622;23.194;2023-03-23T11:42:50;6.10;;;5.80;;
5951;SDS011;3001;42.622;23.194;2023-03-23T11:45:25;7.50;;;6.60;;
5951;SDS011;3001;42.622;23.194;2023-03-23T11:48:01;7.23;;;6.83;;
5951;SDS011;3001;42.622;23.194;2023-03-23T11:50:44;7.10;;;6.70;;
5951;SDS011;3001;42.622;23.194;2023-03-23T11:53:16;7.13;;;6.63;;
5951;SDS011;3001;42.622;23.194;2023-03-23T11:55:55;7.30;;;6.60;;
5951;SDS011;3001;42.622;23.194;2023-03-23T11:58:26;7.03;;;6.53;;
5951;SDS011;3001;42.622;23.194;2023-03-23T12:00:58;7.67;;;6.70;;
5951;SDS011;3001;42.622;23.194;2023-03-23T12:03:33;6.00;;;5.70;;
5951;SDS011;3001;42.622;23.194;2023-03-23T12:06:23;6.37;;;5.97;;
5951;SDS011;3001;42.622;23.194;2023-03-23T12:08:59;7.40;;;7.00;;
5951;SDS011;3001;42.622;23.194;2023-03-23T12:11:37;7.67;;;7.03;;
5951;SDS011;3001;42.622;23.194;2023-03-23T12:14:14;6.77;;;6.37;;
5951;SDS011;3001;42.622;23.194;2023-03-23T12:16:49;6.83;;;6.30;;
5951;SDS011;3001;42.622;23.194;2023-03-23T12:19:26;6.47;;;5.87;;
5951;SDS011;3001;42.622;23.194;2023-03-23T12:22:04;7.47;;;6.77;;
5951;SDS011;3001;42.622;23.194;2023-03-23T12:24:46;6.57;;;6.17;;
5951;SDS011;3001;42.622;23.194;2023-03-23T12:27:25;6.53;;;6.00;;
5951;SDS011;3001;42.622;23.194;2023-03-23T12:30:08;6.20;;;5.90;;
5951;SDS011;3001;42.622;23.194;2023-03-23T12:32:58;6.73;;;6.10;;
5951;SDS011;3001;42.622;23.194;2023-03-23T12:35:38;6.80;;;6.40;;
5951;SDS011;3001;42.622;23.194;2023-03-23T12:41:15;7.10;;;6.70;;
5951;SDS011;3001;42.622;23.194;2023-03-23T12:43:51;6.33;;;5.93;;
5951;SDS011;3001;42.622;23.194;2023-03-23T12:46:25;6.00;;;5.47;;
5951;SDS011;3001;42.622;23.194;2023-03-23T12:49:12;5.60;;;5.30;;
5951;SDS011;3001;42.622;23.194;2023-03-23T12:51:44;5.03;;;4.73;;
5951;SDS011;3001;42.622;23.194;2023-03-23T12:54:19;5.23;;;4.90;;
5951;SDS011;3001;42.622;23.194;2023-03-23T12:56:52;6.37;;;5.20;;
5951;SDS011;3001;42.622;23.194;2023-03-23T12:59:25;5.30;;;5.00;;
5951;SDS011;3001;42.622;23.194;2023-03-23T13:02:09;4.90;;;4.67;;
5951;SDS011;3001;42.622;23.194;2023-03-23T13:04:43;5.40;;;5.20;;
5951;SDS011;3001;42.622;23.194;2023-03-23T13:07:14;5.27;;;4.97;;
5951;SDS011;3001;42.622;23.194;2023-03-23T13:09:46;4.97;;;4.67;;
5951;SDS011;3001;42.622;23.194;2023-03-23T13:12:19;5.70;;;5.40;;
5951;SDS011;3001;42.622;23.194;2023-03-23T13:14:50;5.93;;;5.53;;
5951;SDS011;3001;42.622;23.194;2023-03-23T13:17:28;5.93;;;5.60;;
5951;SDS011;3001;42.622;23.194;2023-03-23T13:20:16;6.17;;;5.67;;
5951;SDS011;3001;42.622;23.194;2023-03-23T13:23:02;6.27;;;5.93;;
5951;SDS011;3001;42.622;23.194;2023-03-23T13:25:39;6.03;;;5.70;;
5951;SDS011;3001;42.622;23.194;2023-03-23T13:28:19;5.50;;;5.20;;
5951;SDS011;3001;42.622;23.194;2023-03-23T13:30:58;5.83;;;5.43;;
5951;SDS011;3001;42.622;23.194;2023-03-23T13:33:31;5.97;;;5.47;;
5951;SDS011;3001;42.622;23.194;2023-03-23T13:36:04;5.33;;;5.00;;
5951;SDS011;3001;42.622;23.194;2023-03-23T13:38:35;5.77;;;5.37;;
5951;SDS011;3001;42.622;23.194;2023-03-23T13:41:06;5.20;;;4.90;;
5951;SDS011;3001;42.622;23.194;2023-03-23T13:43:36;5.00;;;4.70;;
5951;SDS011;3001;42.622;23.194;2023-03-23T13:46:09;5.27;;;4.97;;
5951;SDS011;3001;42.622;23.194;2023-03-23T13:48:40;4.60;;;4.20;;
5951;SDS011;3001;42.622;23.194;2023-03-23T13:51:25;4.97;;;4.67;;
5951;SDS011;3001;42.622;23.194;2023-03-23T13:54:15;5.27;;;4.97;;
5951;SDS011;3001;42.622;23.194;2023-03-23T13:56:53;5.30;;;5.03;;
5951;SDS011;3001;42.622;23.194;2023-03-23T13:59:32;5.53;;;5.00;;
5951;SDS011;3001;42.622;23.194;2023-03-23T14:05:08;5.10;;;4.90;;
5951;SDS011;3001;42.622;23.194;2023-03-23T14:07:50;4.90;;;4.60;;
5951;SDS011;3001;42.622;23.194;2023-03-23T14:10:19;5.83;;;4.23;;
5951;SDS011;3001;42.622;23.194;2023-03-23T14:12:48;5.77;;;5.30;;
5951;SDS011;3001;42.622;23.194;2023-03-23T14:15:17;5.47;;;5.17;;
5951;SDS011;3001;42.622;23.194;2023-03-23T14:17:45;5.57;;;5.10;;
5951;SDS011;3001;42.622;23.194;2023-03-23T14:20:17;5.57;;;5.20;;
5951;SDS011;3001;42.622;23.194;2023-03-23T14:22:53;5.17;;;4.87;;
5951;SDS011;3001;42.622;23.194;2023-03-23T14:25:21;4.93;;;4.67;;
5951;SDS011;3001;42.622;23.194;2023-03-23T14:27:52;5.27;;;4.97;;
5951;SDS011;3001;42.622;23.194;2023-03-23T14:30:20;5.00;;;4.80;;
5951;SDS011;3001;42.622;23.194;2023-03-23T14:32:51;5.30;;;5.00;;
5951;SDS011;3001;42.622;23.194;2023-03-23T14:35:21;5.87;;;5.47;;
5951;SDS011;3001;42.622;23.194;2023-03-23T14:37:52;5.30;;;5.00;;
5951;SDS011;3001;42.622;23.194;2023-03-23T14:40:19;5.00;;;4.60;;
5951;SDS011;3001;42.622;23.194;2023-03-23T14:42:46;5.40;;;5.00;;
5951;SDS011;3001;42.622;23.194;2023-03-23T14:45:15;5.20;;;4.90;;
5951;SDS011;3001;42.622;23.194;2023-03-23T14:47:44;5.23;;;4.83;;
5951;SDS011;3001;42.622;23.194;2023-03-23T14:50:25;5.60;;;4.40;;
5951;SDS011;3001;42.622;23.194;2023-03-23T14:52:56;5.33;;;4.93;;
5951;SDS011;3001;42.622;23.194;2023-03-23T14:55:26;5.07;;;4.67;;
5951;SDS011;3001;42.622;23.194;2023-03-23T14:57:56;5.30;;;4.80;;
5951;SDS011;3001;42.622;23.194;2023-03-23T15:00:33;4.20;;;4.00;;
5951;SDS011;3001;42.622;23.194;2023-03-23T15:03:04;5.97;;;5.63;;
5951;SDS011;3001;42.622;23.194;2023-03-23T15:05:34;5.13;;;4.80;;
5951;SDS011;3001;42.622;23.194;2023-03-23T15:08:04;4.97;;;4.63;;
5951;SDS011;3001;42.622;23.194;2023-03-23T15:10:34;4.57;;;4.37;;
5951;SDS011;3001;42.622;23.194;2023-03-23T15:13:00;4.50;;;4.30;;
5951;SDS011;3001;42.622;23.194;2023-03-23T15:15:28;5.00;;;4.70;;
5951;SDS011;3001;42.622;23.194;2023-03-23T15:17:56;4.50;;;4.20;;
5951;SDS011;3001;42.622;23.194;2023-03-23T15:20:25;4.67;;;4.37;;
5951;SDS011;3001;42.622;23.194;2023-03-23T15:22:55;4.93;;;4.63;;